Terminal Aerodrome Forecast
Issued by NWS

Home | Current Version | Previous Version | Graphics & Text | Print | Product List | Glossary On
Versions: 1 2 3 4 5 6 7 8 9 10 11 12 13 14 15 16 17
000
FTUS43 KLSX 262340
TAFSUS
TAF
KSUS 262340Z 2700/2724 09006KT P6SM VCTS SCT030CB BKN120
     FM270100 VRB03KT P6SM SCT050 BKN120
     FM271600 16007KT P6SM SCT040 BKN120=

USA.gov is the U.S. government's official web portal to all federal, state and local government web resources and services.